Time;durP1;ratioP1;P1;durP2;ratioP2;P2;SDS_P1;SDS_P2;PMS_P1;PMS_P2;Temp;Humidity;BMP_temperature;BMP_pressure;BME280_temperature;BME280_humidity;BME280_pressure;Samples;Min_cycle;Max_cycle;Signal;HPM_P1;HPM_P2
2022/09/19 00:00:43;;;;;;;6.17;2.27;;;12.10;99.90;;;;;;5070424;28;20688;-55
2022/09/19 00:03:09;;;;;;;4.43;1.60;;;12.00;99.90;;;;;;5070284;28;20185;-55
2022/09/19 00:05:40;;;;;;;4.00;1.30;;;12.00;99.90;;;;;;5070303;28;20299;-55
2022/09/19 00:08:06;;;;;;;3.57;1.83;;;12.00;99.90;;;;;;5070449;28;20212;-55
2022/09/19 00:10:38;;;;;;;5.20;1.77;;;11.90;99.90;;;;;;5070404;28;20169;-55
2022/09/19 00:13:04;;;;;;;6.83;2.30;;;11.90;99.90;;;;;;5068108;28;20209;-55
2022/09/19 00:15:30;;;;;;;6.07;2.47;;;11.90;99.90;;;;;;5058880;28;20348;-55
2022/09/19 00:17:55;;;;;;;2.80;2.00;;;11.80;99.90;;;;;;5070556;28;20235;-55
2022/09/19 00:20:21;;;;;;;3.30;1.90;;;11.80;99.90;;;;;;5057474;28;20173;-55
2022/09/19 00:24:45;;;;;;;4.47;2.10;;;11.70;99.90;;;;;;5050213;28;20169;-55
2022/09/19 00:25:32;;;;;;;5.57;2.00;;;11.60;99.90;;;;;;5050022;28;20658;-55
2022/09/19 00:27:58;;;;;;;4.20;1.90;;;11.60;99.90;;;;;;5049998;28;20213;-55
2022/09/19 00:30:23;;;;;;;3.23;1.40;;;11.50;99.90;;;;;;5049943;28;20165;-55
2022/09/19 00:32:50;;;;;;;2.97;1.30;;;11.50;99.90;;;;;;5065311;28;20176;-55
2022/09/19 00:35:15;;;;;;;4.43;1.40;;;11.50;99.90;;;;;;5070077;28;20584;-55
2022/09/19 00:37:41;;;;;;;2.67;1.10;;;11.40;99.90;;;;;;5070159;28;20232;-55
2022/09/19 00:40:07;;;;;;;3.90;1.50;;;11.40;99.90;;;;;;5070041;28;20513;-55
2022/09/19 00:42:34;;;;;;;3.80;1.33;;;11.40;99.90;;;;;;5070112;28;20198;-55
2022/09/19 00:45:11;;;;;;;3.17;1.40;;;11.40;99.90;;;;;;5070184;28;20234;-55
2022/09/19 00:47:41;;;;;;;2.07;1.23;;;11.30;99.90;;;;;;5070129;28;20222;-55
2022/09/19 00:50:27;;;;;;;2.33;1.00;;;11.30;99.90;;;;;;5070058;28;20314;-55
2022/09/19 00:53:00;;;;;;;2.47;1.13;;;11.30;99.90;;;;;;5069959;28;20168;-55
2022/09/19 00:55:27;;;;;;;3.07;1.30;;;11.20;99.90;;;;;;5069965;28;20176;-54
2022/09/19 00:58:01;;;;;;;5.50;1.27;;;11.20;99.90;;;;;;5070013;28;20567;-54
2022/09/19 01:00:28;;;;;;;1.27;1.00;;;11.20;99.90;;;;;;5070077;28;20172;-57
2022/09/19 01:02:54;;;;;;;2.47;0.90;;;11.20;99.90;;;;;;5070045;28;20169;-57
2022/09/19 01:05:42;;;;;;;1.87;1.03;;;11.30;99.90;;;;;;5069568;28;20246;-57
2022/09/19 01:08:26;;;;;;;3.13;0.97;;;11.90;99.90;;;;;;5069752;28;20303;-57
2022/09/19 01:11:10;;;;;;;2.67;1.00;;;11.30;99.90;;;;;;5069916;28;20196;-57
2022/09/19 01:14:05;;;;;;;3.77;1.00;;;11.30;99.90;;;;;;5069902;28;20179;-57
2022/09/19 01:16:41;;;;;;;2.33;0.90;;;11.30;99.90;;;;;;5069742;28;20165;-57
2022/09/19 01:19:44;;;;;;;4.60;1.10;;;11.40;99.90;;;;;;5069797;28;20242;-57
2022/09/19 01:22:46;;;;;;;4.23;1.20;;;11.40;99.90;;;;;;5069701;28;20639;-54
2022/09/19 01:25:31;;;;;;;2.60;0.90;;;11.40;99.90;;;;;;5069768;28;20187;-54
2022/09/19 01:28:27;;;;;;;3.93;1.10;;;11.50;99.90;;;;;;5069546;28;20277;-57
2022/09/19 01:31:16;;;;;;;4.70;1.07;;;11.60;99.90;;;;;;5069527;28;20207;-57
2022/09/19 01:33:41;;;;;;;3.90;0.90;;;11.70;99.90;;;;;;5069451;28;20192;-57
2022/09/19 01:36:10;;;;;;;1.60;0.90;;;11.70;99.90;;;;;;5069686;28;20184;-57
2022/09/19 01:38:38;;;;;;;3.60;0.97;;;11.70;99.90;;;;;;5069668;28;20316;-57
2022/09/19 01:41:07;;;;;;;2.80;1.00;;;11.60;99.90;;;;;;5069347;28;20188;-57
2022/09/19 01:43:33;;;;;;;3.97;0.93;;;11.50;99.90;;;;;;5069583;28;20169;-58
2022/09/19 01:46:07;;;;;;;6.27;1.10;;;11.40;99.90;;;;;;5069650;28;20256;-55
2022/09/19 01:48:54;;;;;;;2.03;1.03;;;11.30;99.90;;;;;;5069446;28;20213;-57
2022/09/19 01:51:47;;;;;;;3.37;1.10;;;11.30;99.90;;;;;;5073042;28;20179;-57
2022/09/19 01:54:25;;;;;;;1.60;1.00;;;11.20;99.90;;;;;;5073032;28;20168;-57
2022/09/19 01:57:26;;;;;;;5.80;1.30;;;11.20;99.90;;;;;;5072997;28;20172;-57
2022/09/19 02:00:03;;;;;;;1.47;0.80;;;11.10;99.90;;;;;;5072833;28;20184;-56
2022/09/19 02:02:46;;;;;;;3.10;1.10;;;11.10;99.90;;;;;;5072909;28;20176;-57
2022/09/19 02:05:27;;;;;;;2.07;1.07;;;11.00;99.90;;;;;;5072604;28;20224;-56
2022/09/19 02:08:07;;;;;;;5.33;1.10;;;10.90;99.90;;;;;;5072668;28;20211;-57
2022/09/19 02:10:56;;;;;;;2.10;1.03;;;10.80;99.90;;;;;;5072889;28;20180;-58
2022/09/19 02:13:25;;;;;;;4.27;1.40;;;10.70;99.90;;;;;;5072704;28;20180;-57
2022/09/19 02:15:59;;;;;;;2.83;1.50;;;10.70;99.90;;;;;;5072640;28;20165;-57
2022/09/19 02:18:35;;;;;;;2.57;1.40;;;10.60;99.90;;;;;;5072452;28;20176;-57
2022/09/19 02:21:08;;;;;;;8.10;1.47;;;10.60;99.90;;;;;;5072402;28;20538;-57
2022/09/19 02:23:47;;;;;;;3.60;1.20;;;10.60;99.90;;;;;;5072412;28;20281;-57
2022/09/19 02:26:16;;;;;;;6.77;1.40;;;10.60;99.90;;;;;;5072425;28;20176;-57
2022/09/19 02:28:43;;;;;;;8.83;1.50;;;11.60;99.90;;;;;;5072313;28;20183;-57
2022/09/19 02:31:11;;;;;;;2.23;1.20;;;10.70;99.90;;;;;;5072252;28;20188;-57
2022/09/19 02:33:39;;;;;;;6.70;1.57;;;10.60;99.90;;;;;;5072159;28;20229;-55
2022/09/19 02:36:32;;;;;;;4.30;1.60;;;10.70;99.90;;;;;;5072321;28;20176;-56
2022/09/19 02:39:25;;;;;;;2.10;1.20;;;10.70;99.90;;;;;;5057340;28;20181;-56
2022/09/19 02:42:17;;;;;;;2.23;1.23;;;10.70;99.90;;;;;;5052078;28;20227;-56
2022/09/19 02:45:11;;;;;;;3.90;1.20;;;10.60;99.90;;;;;;5016266;28;20181;-56
2022/09/19 02:47:37;;;;;;;1.83;1.20;;;10.60;99.90;;;;;;5051916;28;20217;-56
2022/09/19 02:50:29;;;;;;;3.50;1.30;;;10.60;99.90;;;;;;5034030;28;20181;-56
2022/09/19 02:52:57;;;;;;;2.70;1.50;;;10.60;99.90;;;;;;5051592;28;20203;-56
2022/09/19 02:55:28;;;;;;;2.63;1.20;;;10.70;99.90;;;;;;5033890;28;20181;-56
2022/09/19 02:57:58;;;;;;;3.03;1.30;;;10.70;99.90;;;;;;5051839;28;20172;-56
2022/09/19 03:00:25;;;;;;;5.30;1.50;;;10.70;99.90;;;;;;5052157;28;20169;-55
2022/09/19 03:03:00;;;;;;;2.37;1.03;;;10.80;99.90;;;;;;5052090;28;20181;-56
2022/09/19 03:05:29;;;;;;;3.00;1.10;;;10.80;99.90;;;;;;5051717;28;20221;-56
2022/09/19 03:08:06;;;;;;;3.30;1.10;;;10.70;99.90;;;;;;5051449;28;20223;-56
2022/09/19 03:10:40;;;;;;;2.17;0.93;;;10.50;99.90;;;;;;5051558;28;20184;-56
2022/09/19 03:13:08;;;;;;;1.87;1.10;;;10.40;99.90;;;;;;5051646;28;20173;-56
2022/09/19 03:15:36;;;;;;;3.17;1.07;;;10.30;99.90;;;;;;5051442;28;20583;-56
2022/09/19 03:18:08;;;;;;;3.40;1.03;;;10.20;99.90;;;;;;5051354;28;20226;-55
2022/09/19 03:20:38;;;;;;;3.00;1.10;;;10.20;99.90;;;;;;5051421;28;20177;-55
2022/09/19 03:23:10;;;;;;;3.27;1.23;;;10.20;99.90;;;;;;5051258;28;20192;-56
2022/09/19 03:25:37;;;;;;;4.83;1.40;;;10.10;99.90;;;;;;5051454;28;20261;-56
2022/09/19 03:28:03;;;;;;;5.63;1.30;;;10.20;99.90;;;;;;5051331;28;20223;-56
2022/09/19 03:30:28;;;;;;;2.70;1.10;;;10.10;99.90;;;;;;5051191;28;20616;-56
2022/09/19 03:32:54;;;;;;;1.97;1.23;;;10.10;99.90;;;;;;5051041;28;20667;-56
2022/09/19 03:35:21;;;;;;;10.20;1.67;;;10.20;99.90;;;;;;5051006;28;20203;-55
2022/09/19 03:37:46;;;;;;;7.10;1.40;;;10.30;99.90;;;;;;5050982;28;20169;-55
2022/09/19 03:40:12;;;;;;;2.33;1.10;;;10.40;99.90;;;;;;5051053;28;20172;-56
2022/09/19 03:42:38;;;;;;;2.43;1.20;;;10.50;99.90;;;;;;5051137;28;20263;-56
2022/09/19 03:45:05;;;;;;;3.50;1.10;;;10.60;99.90;;;;;;5051018;28;20196;-56
2022/09/19 03:47:31;;;;;;;2.73;1.30;;;10.50;99.90;;;;;;5050815;28;20693;-56
2022/09/19 03:49:58;;;;;;;3.63;1.17;;;10.50;99.90;;;;;;5050966;28;20248;-54
2022/09/19 03:52:26;;;;;;;2.13;1.00;;;10.40;99.90;;;;;;5050737;28;20232;-55
2022/09/19 03:54:51;;;;;;;5.47;1.00;;;10.30;99.90;;;;;;5050681;28;20248;-54
2022/09/19 03:57:17;;;;;;;1.97;1.07;;;10.20;99.90;;;;;;5050738;28;20252;-55
2022/09/19 03:59:43;;;;;;;3.63;1.20;;;10.20;99.90;;;;;;5050823;28;20531;-55
2022/09/19 04:02:12;;;;;;;4.87;1.23;;;10.20;99.90;;;;;;5050671;28;20169;-55
2022/09/19 04:04:38;;;;;;;6.67;1.37;;;10.00;99.90;;;;;;5050486;28;20213;-55
2022/09/19 04:07:04;;;;;;;2.23;1.20;;;10.00;99.90;;;;;;5050476;28;20213;-56
2022/09/19 04:09:31;;;;;;;3.90;1.40;;;10.00;99.90;;;;;;5050729;28;20170;-56
2022/09/19 04:11:57;;;;;;;5.87;1.17;;;9.90;99.90;;;;;;5050164;28;20204;-56
2022/09/19 04:14:23;;;;;;;4.73;1.40;;;9.90;99.90;;;;;;5050641;28;20207;-56
2022/09/19 04:16:49;;;;;;;5.63;1.20;;;9.90;99.90;;;;;;5050618;28;20205;-56
2022/09/19 04:19:15;;;;;;;2.30;1.27;;;10.00;99.90;;;;;;5032669;28;20169;-56
2022/09/19 04:21:41;;;;;;;3.90;1.30;;;10.10;99.90;;;;;;5032628;28;20169;-56
2022/09/19 04:24:11;;;;;;;5.73;1.30;;;10.10;99.90;;;;;;5050766;28;20168;-56
2022/09/19 04:26:37;;;;;;;2.80;1.20;;;10.20;99.90;;;;;;5050223;28;20165;-56
2022/09/19 04:29:06;;;;;;;1.57;1.00;;;10.20;99.90;;;;;;5050350;28;20645;-56
2022/09/19 04:31:39;;;;;;;5.97;1.43;;;10.30;99.90;;;;;;5050191;28;20199;-56
2022/09/19 04:34:10;;;;;;;1.27;0.83;;;10.50;99.90;;;;;;5050173;28;20274;-56
2022/09/19 04:36:35;;;;;;;5.33;1.30;;;10.50;99.90;;;;;;5050279;28;20195;-56
2022/09/19 04:39:02;;;;;;;2.97;1.20;;;10.60;99.90;;;;;;5050198;28;20173;-56
2022/09/19 04:41:35;;;;;;;2.33;1.20;;;10.50;99.90;;;;;;5053354;28;20206;-55
2022/09/19 04:44:03;;;;;;;2.23;1.30;;;10.50;99.90;;;;;;5061851;28;20176;-56
2022/09/19 04:46:31;;;;;;;3.27;1.30;;;10.40;99.90;;;;;;5069893;28;20169;-56
2022/09/19 04:48:57;;;;;;;2.20;1.27;;;10.30;99.90;;;;;;5051115;28;20181;-55
2022/09/19 04:51:24;;;;;;;2.73;1.20;;;10.30;99.90;;;;;;5049981;28;20165;-56
2022/09/19 04:53:50;;;;;;;2.23;1.17;;;10.20;99.90;;;;;;5050117;28;20181;-56
2022/09/19 04:56:17;;;;;;;4.80;1.17;;;10.20;99.90;;;;;;5032249;28;20165;-55
2022/09/19 04:58:44;;;;;;;1.50;1.00;;;10.30;99.90;;;;;;5049974;28;20260;-55
2022/09/19 05:01:11;;;;;;;2.37;1.20;;;10.30;99.90;;;;;;5069188;28;20200;-55
2022/09/19 05:03:37;;;;;;;2.60;1.00;;;10.40;99.90;;;;;;5070103;28;20603;-55
2022/09/19 05:06:05;;;;;;;3.77;1.23;;;10.40;99.90;;;;;;5069920;28;20221;-56
2022/09/19 05:08:32;;;;;;;2.57;1.00;;;10.40;99.90;;;;;;5069930;28;20297;-55
2022/09/19 05:11:03;;;;;;;5.40;1.30;;;10.40;99.90;;;;;;5069964;28;20165;-56
2022/09/19 05:13:31;;;;;;;2.77;1.17;;;10.30;99.90;;;;;;5069762;28;20280;-56
2022/09/19 05:16:00;;;;;;;2.30;0.90;;;10.30;99.90;;;;;;5070090;28;20268;-55
2022/09/19 05:18:25;;;;;;;2.73;1.20;;;10.20;99.90;;;;;;5069895;28;20208;-55
2022/09/19 05:20:52;;;;;;;2.00;1.00;;;10.10;99.90;;;;;;5069847;28;20245;-55
2022/09/19 05:23:19;;;;;;;2.43;1.10;;;10.10;99.90;;;;;;5051747;28;20180;-56
2022/09/19 05:25:44;;;;;;;3.97;1.40;;;10.00;99.90;;;;;;5072992;28;20631;-55
2022/09/19 05:28:10;;;;;;;5.30;1.40;;;10.00;99.90;;;;;;5038750;28;20220;-56
2022/09/19 05:30:39;;;;;;;2.53;1.50;;;10.00;99.90;;;;;;5073512;28;20168;-56
2022/09/19 05:33:06;;;;;;;2.20;1.20;;;10.00;99.90;;;;;;5073441;28;20195;-56
2022/09/19 05:35:33;;;;;;;2.40;1.30;;;10.00;99.90;;;;;;5073332;28;20698;-55
2022/09/19 05:37:59;;;;;;;3.17;1.30;;;9.90;99.90;;;;;;5073316;28;20208;-55
2022/09/19 05:40:25;;;;;;;4.87;1.40;;;9.90;99.90;;;;;;5073265;28;20177;-55
2022/09/19 05:42:52;;;;;;;3.77;1.10;;;9.90;99.90;;;;;;5073112;28;20211;-55
2022/09/19 05:45:20;;;;;;;6.73;1.50;;;9.90;99.90;;;;;;5073447;28;20202;-55
2022/09/19 05:47:46;;;;;;;2.67;1.30;;;9.90;99.90;;;;;;5073056;28;20223;-55
2022/09/19 05:50:14;;;;;;;6.47;1.50;;;10.00;99.90;;;;;;5073152;28;20260;-55
2022/09/19 05:55:26;;;;;;;7.20;1.23;;;10.00;99.90;;;;;;5073047;28;20526;-55
2022/09/19 05:57:55;;;;;;;3.33;1.43;;;10.10;99.90;;;;;;5072951;28;20193;-55
2022/09/19 06:00:23;;;;;;;6.00;1.40;;;10.10;99.90;;;;;;5054909;28;20263;-55
2022/09/19 06:02:57;;;;;;;5.77;1.27;;;10.20;99.90;;;;;;5072755;28;20542;-56
2022/09/19 06:05:24;;;;;;;3.67;1.33;;;10.30;99.90;;;;;;5072640;28;20691;-55
2022/09/19 06:07:51;;;;;;;4.80;1.23;;;10.30;99.90;;;;;;5072687;28;20298;-55
2022/09/19 06:10:18;;;;;;;1.23;0.90;;;10.40;99.90;;;;;;5072592;28;20215;-55
2022/09/19 06:12:44;;;;;;;2.63;1.30;;;10.40;99.90;;;;;;5072712;28;20172;-56
2022/09/19 06:15:10;;;;;;;3.83;1.40;;;10.40;99.90;;;;;;5072703;28;20634;-55
2022/09/19 06:17:36;;;;;;;1.90;1.23;;;10.40;99.90;;;;;;5072666;28;20187;-55
2022/09/19 06:20:01;;;;;;;5.20;1.13;;;10.40;99.90;;;;;;5072666;28;20168;-55
2022/09/19 06:22:29;;;;;;;3.00;1.20;;;10.40;99.90;;;;;;5072387;28;20173;-55
2022/09/19 06:24:54;;;;;;;2.07;1.10;;;10.40;99.90;;;;;;5072715;28;20470;-56
2022/09/19 06:27:20;;;;;;;1.63;1.10;;;10.50;99.90;;;;;;5072299;28;20218;-55
2022/09/19 06:29:46;;;;;;;2.13;1.13;;;10.50;99.90;;;;;;5072587;28;20272;-55
2022/09/19 06:32:11;;;;;;;4.97;1.10;;;10.50;99.90;;;;;;5072478;28;20800;-56
2022/09/19 06:34:37;;;;;;;4.07;1.10;;;10.50;99.90;;;;;;5071992;28;20169;-56
2022/09/19 06:37:03;;;;;;;1.87;1.10;;;10.60;99.90;;;;;;5072260;28;20183;-56
2022/09/19 06:39:29;;;;;;;5.43;1.70;;;10.70;99.90;;;;;;5054291;28;20275;-55
2022/09/19 06:41:57;;;;;;;6.77;1.23;;;10.90;99.90;;;;;;5072185;28;20522;-55
2022/09/19 06:44:25;;;;;;;2.53;1.57;;;11.00;99.90;;;;;;5072134;28;20643;-55
2022/09/19 06:46:50;;;;;;;3.27;1.20;;;11.10;99.90;;;;;;5071937;28;20204;-55
2022/09/19 06:49:16;;;;;;;2.50;1.20;;;11.20;99.90;;;;;;5072035;28;20299;-55
2022/09/19 06:51:42;;;;;;;3.83;1.30;;;11.30;99.90;;;;;;5072095;28;20267;-55
2022/09/19 06:54:08;;;;;;;2.80;1.30;;;11.50;99.90;;;;;;5072195;28;20187;-55
2022/09/19 06:56:34;;;;;;;4.43;1.70;;;11.60;99.90;;;;;;5072023;28;20184;-55
2022/09/19 06:58:59;;;;;;;3.30;1.60;;;11.70;99.90;;;;;;5071843;28;20230;-55
2022/09/19 07:01:26;;;;;;;4.73;1.50;;;11.80;99.90;;;;;;5071824;28;20213;-55
2022/09/19 07:03:51;;;;;;;4.70;1.50;;;11.80;99.90;;;;;;5071755;28;20173;-55
2022/09/19 07:06:17;;;;;;;3.90;1.40;;;11.90;99.90;;;;;;5071359;28;20230;-55
2022/09/19 07:08:44;;;;;;;4.03;1.47;;;12.00;99.90;;;;;;5068922;28;20262;-55
2022/09/19 07:11:09;;;;;;;4.50;1.20;;;12.10;99.90;;;;;;5060480;28;20218;-60
2022/09/19 07:13:35;;;;;;;3.40;1.27;;;12.20;99.90;;;;;;5071453;28;20243;-55
2022/09/19 07:16:02;;;;;;;4.90;1.50;;;12.20;99.90;;;;;;5055496;28;20207;-55
2022/09/19 07:18:28;;;;;;;2.63;1.40;;;12.20;99.90;;;;;;5051253;28;20184;-55
2022/09/19 07:20:53;;;;;;;2.27;1.27;;;12.30;99.90;;;;;;5051270;28;20490;-55
2022/09/19 07:23:19;;;;;;;4.73;1.60;;;12.40;99.90;;;;;;5051417;28;20180;-55
2022/09/19 07:25:46;;;;;;;3.63;1.40;;;12.40;99.90;;;;;;5051555;28;20169;-55
2022/09/19 07:28:14;;;;;;;3.27;1.40;;;12.40;99.90;;;;;;5051040;28;20254;-56
2022/09/19 07:30:43;;;;;;;2.13;1.23;;;12.50;99.90;;;;;;5051046;28;20169;-55
2022/09/19 07:33:10;;;;;;;5.00;1.47;;;12.60;99.90;;;;;;5050977;28;20540;-55
2022/09/19 07:35:37;;;;;;;2.33;1.33;;;12.60;99.90;;;;;;5051033;28;20286;-55
2022/09/19 07:38:06;;;;;;;4.15;1.63;;;12.60;99.90;;;;;;5051048;28;20691;-55
2022/09/19 07:40:33;;;;;;;3.07;1.47;;;12.70;99.90;;;;;;5050825;28;20193;-55
2022/09/19 07:43:03;;;;;;;2.70;1.50;;;12.80;99.90;;;;;;5050972;28;20189;-55
2022/09/19 07:45:34;;;;;;;2.93;1.30;;;12.80;99.90;;;;;;5050989;28;20272;-55
2022/09/19 07:48:00;;;;;;;4.33;1.60;;;12.70;99.90;;;;;;5050121;28;20255;-55
2022/09/19 07:50:25;;;;;;;4.72;1.27;;;12.80;99.90;;;;;;5050957;28;20184;-55
2022/09/19 07:52:58;;;;;;;4.43;1.53;;;12.90;99.90;;;;;;5050788;28;20187;-55
2022/09/19 07:55:25;;;;;;;6.40;1.60;;;13.00;99.90;;;;;;5050952;28;20169;-55
2022/09/19 07:57:52;;;;;;;4.87;1.70;;;13.10;99.90;;;;;;5050802;28;20181;-55
2022/09/19 08:00:18;;;;;;;6.25;1.60;;;13.10;99.90;;;;;;5051470;28;20224;-55
2022/09/19 08:02:51;;;;;;;5.05;1.50;;;13.10;99.90;;;;;;5051037;28;20205;-55
2022/09/19 08:05:17;;;;;;;5.13;1.70;;;13.30;99.90;;;;;;5050805;28;20216;-56
2022/09/19 08:07:43;;;;;;;7.95;1.65;;;13.30;99.90;;;;;;5050673;28;20248;-55
2022/09/19 08:10:09;;;;;;;2.28;1.40;;;13.40;99.90;;;;;;5050676;28;20193;-55
2022/09/19 08:12:34;;;;;;;6.55;1.70;;;13.50;99.90;;;;;;5050513;28;20181;-55
2022/09/19 08:15:01;;;;;;;6.88;1.70;;;13.60;99.90;;;;;;5050516;28;20292;-55
2022/09/19 08:17:27;;;;;;;1.80;1.50;;;13.70;99.90;;;;;;5050472;28;20181;-55
2022/09/19 08:19:54;;;;;;;4.68;1.48;;;13.70;99.90;;;;;;5050701;28;20173;-55
2022/09/19 08:22:20;;;;;;;7.07;1.60;;;13.80;99.90;;;;;;5050395;28;20251;-55
2022/09/19 08:24:46;;;;;;;4.28;1.70;;;13.80;99.90;;;;;;5050368;28;20539;-55
2022/09/19 08:27:11;;;;;;;4.70;2.00;;;13.90;99.90;;;;;;5032331;28;20211;-55
2022/09/19 08:29:38;;;;;;;3.70;2.05;;;13.90;99.90;;;;;;5050128;28;20180;-55
2022/09/19 08:32:04;;;;;;;4.35;1.85;;;13.90;99.90;;;;;;5050469;28;20264;-55
2022/09/19 08:34:30;;;;;;;6.50;1.65;;;14.10;99.90;;;;;;5050419;28;20299;-55
2022/09/19 08:37:00;;;;;;;7.90;2.05;;;14.30;99.90;;;;;;5032218;28;20639;-55
2022/09/19 08:39:26;;;;;;;4.72;1.60;;;14.40;99.90;;;;;;5050318;28;20192;-55
2022/09/19 08:42:04;;;;;;;2.60;1.50;;;14.40;99.90;;;;;;5050314;28;20176;-55
2022/09/19 08:44:45;;;;;;;5.57;1.88;;;14.50;99.90;;;;;;5050182;28;20196;-56
2022/09/19 08:47:13;;;;;;;5.07;1.70;;;14.60;99.90;;;;;;5050229;28;20211;-56
2022/09/19 08:49:55;;;;;;;5.63;1.92;;;14.70;99.90;;;;;;5050170;28;20223;-56
2022/09/19 08:52:52;;;;;;;6.15;1.83;;;14.80;99.90;;;;;;5050001;28;20181;-56
2022/09/19 08:55:22;;;;;;;4.40;1.55;;;14.90;99.90;;;;;;5034314;28;20173;-56
2022/09/19 08:58:00;;;;;;;7.50;1.90;;;15.00;99.90;;;;;;5050165;28;20173;-56
2022/09/19 09:00:32;;;;;;;5.05;1.92;;;15.10;99.90;;;;;;5054238;28;20172;-56
2022/09/19 09:03:03;;;;;;;7.22;1.45;;;15.20;99.90;;;;;;5054045;28;20643;-56
2022/09/19 09:05:44;;;;;;;4.43;1.65;;;15.40;99.90;;;;;;5053881;28;20730;-56
2022/09/19 09:08:28;;;;;;;2.63;1.38;;;15.40;99.90;;;;;;5053830;28;20683;-55
2022/09/19 09:11:18;;;;;;;1.60;1.15;;;15.60;99.90;;;;;;5053874;28;20188;-56
2022/09/19 09:14:08;;;;;;;3.30;0.90;;;15.70;99.90;;;;;;5053770;28;20188;-55
2022/09/19 09:17:10;;;;;;;1.83;0.90;;;15.90;99.90;;;;;;5056996;28;20179;-55
2022/09/19 09:20:21;;;;;;;1.40;1.02;;;16.00;99.90;;;;;;5073116;28;20184;-55
2022/09/19 09:23:04;;;;;;;3.15;1.02;;;16.10;99.90;;;;;;5048287;28;20185;-55
2022/09/19 09:25:35;;;;;;;1.75;0.90;;;16.20;99.90;;;;;;5053685;28;20173;-55
2022/09/19 09:28:25;;;;;;;2.55;0.98;;;16.40;99.90;;;;;;5053862;28;20213;-55
2022/09/19 09:30:53;;;;;;;1.85;0.90;;;16.40;99.90;;;;;;5053798;28;20288;-55
2022/09/19 09:33:29;;;;;;;1.75;0.90;;;16.50;99.90;;;;;;5053637;28;20299;-55
2022/09/19 09:36:06;;;;;;;2.10;0.73;;;16.50;99.90;;;;;;5053535;28;20180;-55
2022/09/19 09:38:48;;;;;;;1.63;0.90;;;16.80;99.90;;;;;;5053244;28;20160;-55
2022/09/19 09:41:47;;;;;;;3.05;1.52;;;16.90;99.90;;;;;;5053357;28;20169;-55
2022/09/19 09:44:13;;;;;;;4.50;0.80;;;17.00;99.90;;;;;;5053069;28;20176;-55
2022/09/19 09:46:53;;;;;;;2.67;0.90;;;17.10;99.90;;;;;;5034951;28;20185;-54
2022/09/19 09:49:27;;;;;;;1.50;0.80;;;17.30;99.90;;;;;;5053142;28;20181;-54
2022/09/19 09:52:07;;;;;;;1.50;0.80;;;17.40;99.90;;;;;;5053157;28;20276;-55
2022/09/19 09:57:56;;;;;;;2.75;0.77;;;17.40;99.90;;;;;;5011226;28;20187;-55
2022/09/19 10:03:36;;;;;;;5.18;1.00;;;17.80;99.90;;;;;;5038452;28;20674;-55
2022/09/19 10:06:27;;;;;;;4.00;0.77;;;18.00;99.90;;;;;;5030691;28;20278;-56
2022/09/19 10:08:59;;;;;;;1.25;0.68;;;18.10;99.90;;;;;;5052936;28;20256;-55
2022/09/19 10:12:03;;;;;;;2.25;0.80;;;18.00;99.90;;;;;;5052016;28;20192;-55
2022/09/19 10:14:29;;;;;;;6.00;1.00;;;18.20;99.90;;;;;;5052875;28;20160;-55
2022/09/19 10:17:01;;;;;;;1.25;0.80;;;18.60;99.90;;;;;;5052928;28;20258;-60
2022/09/19 10:19:30;;;;;;;1.75;0.80;;;18.30;99.90;;;;;;5052967;28;20204;-56
2022/09/19 10:21:59;;;;;;;1.92;1.10;;;18.60;99.90;;;;;;5052812;28;20227;-56
2022/09/19 10:24:53;;;;;;;3.45;0.60;;;18.60;99.90;;;;;;5052917;28;20181;-55
2022/09/19 10:27:23;;;;;;;2.10;0.95;;;18.80;99.90;;;;;;5052542;28;20236;-55
2022/09/19 10:29:51;;;;;;;2.00;0.98;;;18.80;99.90;;;;;;5052642;28;20175;-55
2022/09/19 10:32:19;;;;;;;2.03;0.70;;;19.00;99.90;;;;;;5052630;28;20181;-56
2022/09/19 10:34:45;;;;;;;2.45;0.65;;;19.40;99.90;;;;;;5052693;28;20185;-56
2022/09/19 10:37:14;;;;;;;2.75;0.82;;;19.70;99.90;;;;;;5052674;28;20172;-56
2022/09/19 10:39:44;;;;;;;3.67;0.80;;;19.70;99.90;;;;;;5052694;28;20259;-56
2022/09/19 10:42:42;;;;;;;3.00;0.77;;;19.90;99.90;;;;;;5052539;28;20267;-56
2022/09/19 10:45:30;;;;;;;4.75;0.80;;;20.10;99.90;;;;;;5040872;28;20192;-56
2022/09/19 10:48:00;;;;;;;1.25;0.60;;;19.90;99.90;;;;;;5052096;28;20312;-55
2022/09/19 10:50:26;;;;;;;3.15;0.90;;;20.10;99.90;;;;;;5052276;28;20181;-56
2022/09/19 10:53:01;;;;;;;1.10;0.77;;;20.40;99.90;;;;;;5052189;28;20212;-56
2022/09/19 10:55:27;;;;;;;3.13;0.95;;;21.40;99.90;;;;;;5034058;28;20595;-56
2022/09/19 10:58:01;;;;;;;1.80;0.63;;;21.40;99.90;;;;;;5052068;28;20670;-56
2022/09/19 11:00:32;;;;;;;2.97;0.80;;;22.00;99.90;;;;;;5052107;28;20604;-56
2022/09/19 11:03:16;;;;;;;2.25;0.68;;;22.30;99.90;;;;;;5034150;28;20512;-56
2022/09/19 11:05:42;;;;;;;1.50;0.50;;;22.00;99.90;;;;;;5051816;28;20224;-57
2022/09/19 11:08:26;;;;;;;2.65;0.75;;;22.10;99.90;;;;;;5051905;28;20208;-57
2022/09/19 11:10:52;;;;;;;1.23;0.75;;;22.20;99.90;;;;;;5051954;28;20256;-56
2022/09/19 11:13:22;;;;;;;0.98;0.60;;;22.00;99.90;;;;;;5051972;28;20248;-56
2022/09/19 11:16:17;;;;;;;2.15;0.77;;;22.50;99.90;;;;;;5051709;28;20188;-55
2022/09/19 11:19:02;;;;;;;1.77;0.90;;;22.30;99.90;;;;;;5051614;28;20177;-56
2022/09/19 11:21:56;;;;;;;2.08;0.80;;;22.90;99.90;;;;;;5051710;28;20173;-56
2022/09/19 11:24:43;;;;;;;1.55;0.70;;;22.70;99.90;;;;;;5029311;28;20276;-56
2022/09/19 11:27:09;;;;;;;3.10;0.98;;;23.20;99.90;;;;;;5051551;28;20258;-57
2022/09/19 11:29:37;;;;;;;3.40;0.90;;;22.70;99.90;;;;;;5051573;28;20177;-56
2022/09/19 11:32:17;;;;;;;0.82;0.60;;;21.70;99.90;;;;;;5051542;28;20173;-56
2022/09/19 11:35:03;;;;;;;5.38;0.80;;;;;;;;;;5051618;28;20264;-56
2022/09/19 11:37:46;;;;;;;2.53;0.80;;;21.50;99.90;;;;;;5040761;28;20278;-56
2022/09/19 11:40:20;;;;;;;1.00;0.60;;;21.70;99.90;;;;;;5051478;28;20166;-56
2022/09/19 11:43:06;;;;;;;2.13;0.80;;;22.00;99.90;;;;;;5054304;28;20179;-56
2022/09/19 11:45:50;;;;;;;1.67;0.70;;;22.40;99.90;;;;;;5063571;28;20233;-56
2022/09/19 11:49:11;;;;;;;1.73;0.60;;;22.40;99.90;;;;;;5069725;28;20212;-55
2022/09/19 11:52:01;;;;;;;2.33;0.80;;;22.50;99.90;;;;;;4979580;28;20183;-57
2022/09/19 11:54:52;;;;;;;0.73;0.50;;;22.90;99.90;;;;;;5051216;28;20253;-56
2022/09/19 11:57:39;;;;;;;2.45;0.60;;;22.60;99.90;;;;;;5051239;28;20211;-56
2022/09/19 12:00:23;;;;;;;2.08;0.50;;;22.70;99.90;;;;;;5051057;28;20177;-56
2022/09/19 12:03:07;;;;;;;0.90;0.40;;;22.50;99.90;;;;;;5050801;28;20169;-55
2022/09/19 12:06:07;;;;;;;2.28;0.60;;;22.90;99.90;;;;;;5050631;28;20270;-55
2022/09/19 12:08:46;;;;;;;0.88;0.60;;;22.60;99.90;;;;;;5050722;28;20230;-55
2022/09/19 12:11:20;;;;;;;1.05;0.50;;;21.90;99.90;;;;;;5050683;28;20181;-55
2022/09/19 12:13:59;;;;;;;1.70;0.75;;;22.10;99.90;;;;;;5050719;28;20191;-55
2022/09/19 12:17:01;;;;;;;1.42;0.75;;;22.20;99.90;;;;;;5050590;28;20173;-55
2022/09/19 12:19:35;;;;;;;1.63;0.60;;;22.20;99.90;;;;;;5050170;28;20185;-55
2022/09/19 12:22:11;;;;;;;1.50;0.68;;;22.20;99.90;;;;;;5050611;28;20168;-55
2022/09/19 12:24:52;;;;;;;2.35;0.80;;;22.20;99.90;;;;;;5050533;28;20652;-55
2022/09/19 12:27:35;;;;;;;0.70;0.50;;;22.10;99.90;;;;;;5050621;28;20216;-55
2022/09/19 12:30:08;;;;;;;2.65;0.80;;;21.90;99.90;;;;;;5050494;28;20204;-55
2022/09/19 12:33:02;;;;;;;1.98;0.90;;;21.70;99.90;;;;;;5050187;28;20256;-56
2022/09/19 12:35:30;;;;;;;1.20;0.50;;;21.70;99.90;;;;;;5050333;28;20271;-56
2022/09/19 12:38:15;;;;;;;1.52;0.82;;;21.90;99.90;;;;;;5050179;28;20636;-56
2022/09/19 12:40:53;;;;;;;0.80;0.70;;;22.00;99.90;;;;;;5050405;28;20181;-55
2022/09/19 12:43:49;;;;;;;1.58;0.82;;;22.00;99.90;;;;;;5050478;28;20631;-56
2022/09/19 12:46:38;;;;;;;1.42;0.50;;;22.00;99.90;;;;;;5050501;28;20535;-55
2022/09/19 12:49:20;;;;;;;1.88;0.80;;;22.20;99.90;;;;;;5050190;28;20726;-56
2022/09/19 12:51:55;;;;;;;1.40;0.80;;;22.20;99.90;;;;;;5050307;28;20644;-56
2022/09/19 12:54:43;;;;;;;2.08;0.70;;;21.80;99.90;;;;;;5050428;28;20271;-56
2022/09/19 12:57:23;;;;;;;2.42;0.68;;;22.10;99.90;;;;;;5037007;28;20180;-56
2022/09/19 12:59:54;;;;;;;0.98;0.60;;;22.20;99.90;;;;;;5032188;28;20177;-56
2022/09/19 13:02:23;;;;;;;1.35;0.73;;;22.30;99.90;;;;;;5050067;28;20207;-56
2022/09/19 13:05:25;;;;;;;1.25;0.60;;;22.40;99.90;;;;;;5049897;28;20225;-56
2022/09/19 13:07:51;;;;;;;2.03;0.70;;;22.70;99.90;;;;;;5005644;28;20252;-56
2022/09/19 13:10:26;;;;;;;2.58;0.80;;;22.70;99.90;;;;;;5050000;28;20259;-56
2022/09/19 13:13:03;;;;;;;1.70;0.50;;;21.90;99.90;;;;;;5050019;28;20180;-56
2022/09/19 13:15:54;;;;;;;2.03;1.00;;;21.90;99.90;;;;;;5050029;28;20177;-56
2022/09/19 13:23:59;;;;;;;1.50;0.60;;;21.00;99.90;;;;;;5050193;28;20179;-55
2022/09/19 13:26:37;;;;;;;1.65;0.70;;;20.60;99.90;;;;;;5049967;28;20240;-55
2022/09/19 13:29:08;;;;;;;4.28;1.00;;;20.50;99.90;;;;;;5049838;28;20205;-55
2022/09/19 13:31:56;;;;;;;2.58;0.60;;;20.40;99.90;;;;;;5049816;28;20170;-56
2022/09/19 13:34:41;;;;;;;1.15;0.70;;;20.20;99.90;;;;;;5049870;28;20189;-55